createdAt,value
2019-05-02T00:02:32.914Z,8.43
2019-05-02T00:05:08.581Z,8.39
2019-05-02T00:07:42.026Z,8.47
2019-05-02T00:10:15.175Z,8.42
2019-05-02T00:12:47.242Z,8.40
2019-05-02T00:15:19.245Z,8.42
2019-05-02T00:17:50.547Z,8.37
2019-05-02T00:20:25.934Z,8.39
2019-05-02T00:22:54.801Z,8.41
2019-05-02T00:25:26.234Z,8.39
2019-05-02T00:27:57.563Z,8.43
2019-05-02T00:30:30.015Z,8.35
2019-05-02T00:33:02.048Z,8.22
2019-05-02T00:35:33.283Z,8.21
2019-05-02T00:38:05.487Z,8.28
2019-05-02T00:40:36.846Z,8.20
2019-05-02T00:43:08.099Z,8.19
2019-05-02T00:45:39.751Z,8.17
2019-05-02T00:48:32.551Z,8.12
2019-05-02T00:51:04.180Z,7.97
2019-05-02T00:53:35.729Z,8.06
2019-05-02T00:56:09.098Z,8.02
2019-05-02T00:58:40.396Z,7.99
2019-05-02T01:01:31.378Z,7.96
2019-05-02T01:04:08.616Z,8.03
2019-05-02T01:06:39.858Z,8.01
2019-05-02T01:09:12.976Z,8.03
2019-05-02T01:11:44.390Z,8.08
2019-05-02T01:14:15.975Z,8.07
2019-05-02T01:16:49.516Z,8.09
2019-05-02T01:19:20.188Z,8.08
2019-05-02T01:21:52.063Z,7.96
2019-05-02T01:24:23.421Z,7.96
2019-05-02T01:27:04.529Z,7.94
2019-05-02T01:30:01.694Z,7.89
2019-05-02T01:32:44.376Z,7.88
2019-05-02T01:35:27.050Z,7.82
2019-05-02T01:38:16.027Z,7.68
2019-05-02T01:40:53.208Z,7.74
2019-05-02T01:43:26.341Z,7.75
2019-05-02T01:45:57.637Z,7.78
2019-05-02T01:48:29.348Z,7.75
2019-05-02T01:51:04.517Z,7.69
2019-05-02T01:53:34.452Z,7.68
2019-05-02T01:56:06.744Z,7.64
2019-05-02T01:58:38.419Z,7.74
2019-05-02T02:01:09.609Z,7.64
2019-05-02T02:03:45.548Z,7.63
2019-05-02T02:06:14.936Z,7.62
2019-05-02T02:08:46.235Z,7.64
2019-05-02T02:11:17.605Z,7.57
2019-05-02T02:13:49.007Z,7.62
2019-05-02T02:16:20.243Z,7.63
2019-05-02T02:19:03.504Z,7.42
2019-05-02T02:21:43.029Z,7.47
2019-05-02T02:24:21.068Z,7.44
2019-05-02T02:26:51.902Z,7.43
2019-05-02T02:29:23.343Z,7.46
2019-05-02T02:31:54.640Z,7.53
2019-05-02T02:34:29.252Z,7.45
2019-05-02T02:36:58.998Z,7.44
2019-05-02T02:39:30.346Z,7.39
2019-05-02T02:42:01.649Z,7.34
2019-05-02T02:44:50.645Z,7.30
2019-05-02T02:47:21.895Z,7.30
2019-05-02T02:49:56.092Z,7.34
2019-05-02T02:52:26.141Z,7.35
2019-05-02T02:54:57.708Z,7.39
2019-05-02T02:57:29.008Z,7.39
2019-05-02T03:00:08.116Z,7.40
2019-05-02T03:02:33.333Z,7.43
2019-05-02T03:05:05.450Z,7.41
2019-05-02T03:07:36.847Z,7.31
2019-05-02T03:10:08.641Z,7.35
2019-05-02T03:12:57.951Z,7.30
2019-05-02T03:15:31.710Z,7.13
2019-05-02T03:18:02.907Z,7.19
2019-05-02T03:20:39.845Z,7.17
2019-05-02T03:23:07.463Z,7.24
2019-05-02T03:25:50.732Z,7.20
2019-05-02T03:28:18.106Z,7.25
2019-05-02T03:30:44.843Z,7.35
2019-05-02T03:33:16.086Z,7.23
2019-05-02T03:35:49.627Z,7.17
2019-05-02T03:38:32.179Z,7.09
2019-05-02T03:40:57.620Z,7.06
2019-05-02T03:43:29.199Z,7.05
2019-05-02T03:46:01.167Z,7.00
2019-05-02T03:48:33.383Z,7.04
2019-05-02T03:51:11.991Z,7.06
2019-05-02T03:53:38.342Z,7.00
2019-05-02T03:56:11.393Z,7.09
2019-05-02T03:58:48.604Z,7.20
2019-05-02T04:01:16.595Z,7.18
2019-05-02T04:03:48.375Z,7.13
2019-05-02T04:06:21.025Z,7.15
2019-05-02T04:08:59.157Z,7.15
2019-05-02T04:11:38.037Z,7.44
2019-05-02T04:14:00.188Z,7.30
2019-05-02T04:16:31.493Z,7.19
2019-05-02T04:19:04.220Z,7.22
2019-05-02T04:21:35.826Z,7.09
2019-05-02T04:24:13.443Z,7.16
2019-05-02T04:26:52.684Z,7.22
2019-05-02T04:29:13.624Z,7.29
2019-05-02T04:31:45.289Z,7.35
2019-05-02T04:34:17.950Z,7.41
2019-05-02T04:36:59.425Z,7.51
2019-05-02T04:39:22.538Z,7.59
2019-05-02T04:41:54.333Z,7.62
2019-05-02T04:44:32.315Z,7.66
2019-05-02T04:47:09.409Z,7.68
2019-05-02T04:49:35.638Z,7.64
2019-05-02T04:52:10.481Z,7.64
2019-05-02T04:54:38.883Z,7.66
2019-05-02T04:57:10.551Z,7.72
2019-05-02T04:59:42.004Z,7.75
2019-05-02T05:02:13.237Z,7.78
2019-05-02T05:04:48.722Z,7.80
2019-05-02T05:07:18.028Z,7.80
2019-05-02T05:09:57.073Z,7.80
2019-05-02T05:12:22.235Z,7.87
2019-05-02T05:14:53.436Z,7.96
2019-05-02T05:17:25.078Z,8.00
2019-05-02T05:20:00.205Z,8.05
2019-05-02T05:22:30.696Z,8.07
2019-05-02T05:25:07.565Z,8.15
2019-05-02T05:27:38.894Z,8.21
2019-05-02T05:30:15.518Z,8.28
2019-05-02T05:32:43.611Z,8.28
2019-05-02T05:35:15.006Z,8.39
2019-05-02T05:37:49.128Z,8.42
2019-05-02T05:40:22.572Z,8.48
2019-05-02T05:42:52.446Z,8.54
2019-05-02T05:45:23.695Z,8.69
2019-05-02T05:47:57.577Z,8.69
2019-05-02T05:50:32.216Z,8.77
2019-05-02T05:53:01.298Z,8.94
2019-05-02T05:55:32.546Z,9.25
2019-05-02T05:58:12.283Z,9.23
2019-05-02T06:00:38.005Z,9.38
2019-05-02T06:03:13.888Z,9.53
2019-05-02T06:05:43.165Z,9.71
2019-05-02T06:08:18.350Z,9.82
2019-05-02T06:10:49.407Z,9.97
2019-05-02T06:13:24.012Z,10.12
2019-05-02T06:16:02.126Z,10.31
2019-05-02T06:18:28.536Z,10.47
2019-05-02T06:21:03.282Z,10.48
2019-05-02T06:23:36.464Z,10.71
2019-05-02T06:26:08.010Z,11.04
2019-05-02T06:28:41.679Z,10.91
2019-05-02T06:31:13.353Z,10.90
2019-05-02T06:33:44.868Z,10.96
2019-05-02T06:36:16.550Z,11.38
2019-05-02T06:38:52.244Z,11.55
2019-05-02T06:41:22.180Z,11.72
2019-05-02T06:43:54.645Z,11.72
2019-05-02T06:46:27.516Z,11.80
2019-05-02T06:48:59.279Z,12.09
2019-05-02T06:51:30.951Z,12.30
2019-05-02T06:54:02.514Z,12.42
2019-05-02T06:56:34.107Z,12.30
2019-05-02T06:59:05.596Z,12.29
2019-05-02T07:01:37.186Z,12.36
2019-05-02T07:04:08.648Z,12.57
2019-05-02T07:06:56.130Z,12.68
2019-05-02T07:09:13.894Z,12.78
2019-05-02T07:11:56.689Z,12.75
2019-05-02T07:14:23.365Z,13.10
2019-05-02T07:17:13.638Z,13.09
2019-05-02T07:19:50.530Z,13.21
2019-05-02T07:22:21.882Z,13.31
2019-05-02T07:24:53.102Z,13.37
2019-05-02T07:27:28.385Z,13.58
2019-05-02T07:29:58.019Z,13.62
2019-05-02T07:32:30.785Z,13.76
2019-05-02T07:35:02.297Z,13.73
2019-05-02T07:37:33.910Z,13.78
2019-05-02T07:40:05.843Z,13.82
2019-05-02T07:42:41.737Z,13.87
2019-05-02T07:45:10.808Z,13.78
2019-05-02T07:47:42.593Z,14.03
2019-05-02T07:50:14.577Z,13.90
2019-05-02T07:52:45.897Z,14.14
2019-05-02T07:55:17.118Z,14.35
2019-05-02T07:57:48.410Z,14.31
2019-05-02T08:00:19.824Z,14.42
2019-05-02T08:02:51.014Z,14.51
2019-05-02T08:05:23.874Z,14.52
2019-05-02T08:07:55.623Z,14.44
2019-05-02T08:10:27.162Z,14.60
2019-05-02T08:12:58.526Z,14.66
2019-05-02T08:15:30.053Z,14.70
2019-05-02T08:18:02.001Z,14.72
2019-05-02T08:20:33.870Z,14.69
2019-05-02T08:23:05.473Z,14.85
2019-05-02T08:25:36.689Z,15.12
2019-05-02T08:28:19.678Z,14.99
2019-05-02T08:30:54.487Z,14.98
2019-05-02T08:33:29.405Z,15.13
2019-05-02T08:35:58.812Z,15.31
2019-05-02T08:38:30.047Z,15.31
2019-05-02T08:41:01.519Z,15.25
2019-05-02T08:43:33.291Z,15.24
2019-05-02T08:46:04.834Z,15.30
2019-05-02T08:48:41.894Z,15.49
2019-05-02T08:51:10.523Z,15.58
2019-05-02T08:53:42.068Z,15.50
2019-05-02T08:56:16.015Z,15.69
2019-05-02T08:58:49.874Z,15.59
2019-05-02T09:01:20.379Z,15.80
2019-05-02T09:03:56.667Z,15.83
2019-05-02T09:06:24.792Z,15.79
2019-05-02T09:08:56.102Z,15.69
2019-05-02T09:11:27.440Z,15.79
2019-05-02T09:13:58.792Z,15.88
2019-05-02T09:16:30.957Z,15.97
2019-05-02T09:19:03.542Z,16.02
2019-05-02T09:21:36.040Z,16.15
2019-05-02T09:24:08.343Z,16.23
2019-05-02T09:26:42.574Z,16.41
2019-05-02T09:29:14.127Z,16.29
2019-05-02T09:31:46.162Z,16.38
2019-05-02T09:34:22.880Z,16.34
2019-05-02T09:36:52.989Z,16.30
2019-05-02T09:39:27.363Z,16.25
2019-05-02T09:41:57.097Z,16.19
2019-05-02T09:44:28.370Z,16.14
2019-05-02T09:46:59.721Z,16.21
2019-05-02T09:49:32.413Z,16.38
2019-05-02T09:52:04.364Z,16.51
2019-05-02T09:54:36.997Z,16.65
2019-05-02T09:57:09.617Z,16.71
2019-05-02T09:59:43.380Z,16.59
2019-05-02T10:02:14.877Z,16.62
2019-05-02T10:04:46.707Z,16.71
2019-05-02T10:07:18.022Z,16.97
2019-05-02T10:09:51.779Z,16.97
2019-05-02T10:12:22.954Z,16.85
2019-05-02T10:14:54.407Z,17.17
2019-05-02T10:17:26.246Z,17.00
2019-05-02T10:19:57.655Z,17.02
2019-05-02T10:22:32.281Z,17.25
2019-05-02T10:25:02.673Z,17.33
2019-05-02T10:27:33.884Z,17.43
2019-05-02T10:30:11.887Z,17.42
2019-05-02T10:32:39.603Z,17.55
2019-05-02T10:35:13.091Z,17.21
2019-05-02T10:37:44.346Z,17.25
2019-05-02T10:40:17.226Z,16.90
2019-05-02T10:42:49.338Z,16.92
2019-05-02T10:45:22.538Z,16.80
2019-05-02T10:47:54.432Z,17.29
2019-05-02T10:50:33.487Z,17.45
2019-05-02T10:53:11.024Z,17.51
2019-05-02T10:55:37.954Z,17.44
2019-05-02T10:58:09.456Z,17.67
2019-05-02T11:00:44.862Z,17.49
2019-05-02T11:03:38.153Z,17.54
2019-05-02T11:06:07.875Z,17.34
2019-05-02T11:08:44.027Z,17.41
2019-05-02T11:11:12.752Z,17.42
2019-05-02T11:14:05.739Z,17.62
2019-05-02T11:16:45.099Z,17.58
2019-05-02T11:19:32.315Z,17.53
2019-05-02T11:22:03.651Z,17.72
2019-05-02T11:24:34.844Z,17.95
2019-05-02T11:27:08.184Z,17.34
2019-05-02T11:29:39.082Z,17.69
2019-05-02T11:32:10.401Z,17.65
2019-05-02T11:34:42.174Z,17.71
2019-05-02T11:37:15.198Z,17.85
2019-05-02T11:39:52.022Z,17.78
2019-05-02T11:42:23.298Z,17.71
2019-05-02T11:44:52.964Z,18.01
2019-05-02T11:47:26.547Z,17.96
2019-05-02T11:49:57.241Z,18.19
2019-05-02T11:52:32.956Z,17.58
2019-05-02T11:55:02.148Z,17.86
2019-05-02T11:57:34.026Z,17.97
2019-05-02T12:00:08.844Z,17.77
2019-05-02T12:02:59.069Z,17.96
2019-05-02T12:05:35.831Z,17.97
2019-05-02T12:08:09.314Z,18.17
2019-05-02T12:10:42.220Z,18.28
2019-05-02T12:13:16.049Z,18.62
2019-05-02T12:15:46.282Z,18.93
2019-05-02T12:18:24.322Z,18.99
2019-05-02T12:20:55.648Z,19.03
2019-05-02T12:23:26.868Z,18.93
2019-05-02T12:26:02.841Z,18.89
2019-05-02T12:28:36.575Z,18.94
2019-05-02T12:31:16.622Z,19.11
2019-05-02T12:33:45.778Z,18.71
2019-05-02T12:36:16.989Z,18.92
2019-05-02T12:38:48.553Z,18.94
2019-05-02T12:41:22.996Z,18.87
2019-05-02T12:43:53.400Z,18.61
2019-05-02T12:46:25.098Z,18.67
2019-05-02T12:48:56.908Z,18.99
2019-05-02T12:51:28.104Z,18.73
2019-05-02T12:53:59.401Z,18.75
2019-05-02T12:56:32.454Z,18.59
2019-05-02T12:59:03.987Z,18.56
2019-05-02T13:01:35.239Z,18.68
2019-05-02T13:04:08.604Z,19.08
2019-05-02T13:06:41.997Z,19.04
2019-05-02T13:09:13.247Z,19.31
2019-05-02T13:12:07.342Z,19.39
2019-05-02T13:14:38.643Z,19.19
2019-05-02T13:17:11.999Z,19.21
2019-05-02T13:19:55.516Z,19.43
2019-05-02T13:22:47.850Z,19.76
2019-05-02T13:25:22.506Z,19.62
2019-05-02T13:27:54.082Z,19.60
2019-05-02T13:30:42.519Z,19.61
2019-05-02T13:33:07.224Z,19.90
2019-05-02T13:35:42.651Z,19.73
2019-05-02T13:38:15.561Z,19.66
2019-05-02T13:40:48.519Z,19.72
2019-05-02T13:43:24.024Z,19.48
2019-05-02T13:46:25.350Z,19.61
2019-05-02T13:48:56.536Z,19.87
2019-05-02T13:51:27.810Z,19.23
2019-05-02T13:54:02.357Z,19.27
2019-05-02T13:56:52.595Z,19.33
2019-05-02T13:59:23.688Z,19.14
2019-05-02T14:01:55.497Z,19.45
2019-05-02T14:04:27.086Z,19.82
2019-05-02T14:06:59.157Z,20.17
2019-05-02T14:09:52.673Z,20.11
2019-05-02T14:12:44.496Z,20.33
2019-05-02T14:15:22.151Z,20.42
2019-05-02T14:17:53.342Z,20.34
2019-05-02T14:20:24.766Z,20.54
2019-05-02T14:22:56.061Z,20.39
2019-05-02T14:25:27.273Z,19.89
2019-05-02T14:27:58.597Z,19.74
2019-05-02T14:30:38.738Z,19.66
2019-05-02T14:33:06.322Z,19.73
2019-05-02T14:35:37.761Z,19.95
2019-05-02T14:38:13.388Z,19.93
2019-05-02T14:41:03.040Z,19.94
2019-05-02T14:43:58.076Z,19.47
2019-05-02T14:46:35.381Z,19.22
2019-05-02T14:49:08.718Z,19.58
2019-05-02T14:51:41.778Z,19.66
2019-05-02T14:54:14.574Z,19.44
2019-05-02T14:57:17.099Z,19.27
2019-05-02T14:59:59.297Z,19.21
2019-05-02T15:02:49.017Z,19.46
2019-05-02T15:05:19.417Z,19.69
2019-05-02T15:07:51.867Z,19.74
2019-05-02T15:10:22.991Z,19.80
2019-05-02T15:12:59.493Z,19.31
2019-05-02T15:15:35.286Z,19.07
2019-05-02T15:18:07.859Z,19.14
2019-05-02T15:20:39.485Z,19.01
2019-05-02T15:23:14.357Z,18.98
2019-05-02T15:25:47.183Z,19.21
2019-05-02T15:28:22.915Z,19.46
2019-05-02T15:31:11.841Z,19.48
2019-05-02T15:33:56.322Z,19.45
2019-05-02T15:36:26.810Z,19.67
2019-05-02T15:41:32.691Z,19.73
2019-05-02T15:44:04.010Z,19.74
2019-05-02T15:46:35.342Z,19.69
2019-05-02T15:49:07.193Z,19.63
2019-05-02T15:51:43.709Z,19.81
2019-05-02T15:54:18.827Z,19.73
2019-05-02T15:57:00.709Z,19.97
2019-05-02T15:59:37.601Z,19.91
2019-05-02T16:02:17.480Z,19.66
2019-05-02T16:04:48.193Z,19.86
2019-05-02T16:07:19.436Z,19.90
2019-05-02T16:09:56.309Z,20.01
2019-05-02T16:12:27.131Z,20.07
2019-05-02T16:14:58.807Z,20.11
2019-05-02T16:17:30.047Z,19.86
2019-05-02T16:20:10.760Z,19.91
2019-05-02T16:22:46.266Z,19.85
2019-05-02T16:25:15.455Z,19.87
2019-05-02T16:27:47.344Z,19.63
2019-05-02T16:30:22.410Z,19.79
2019-05-02T16:32:58.748Z,19.90
2019-05-02T16:35:31.675Z,19.90
2019-05-02T16:38:03.538Z,19.48
2019-05-02T16:40:35.138Z,19.82
2019-05-02T16:43:06.376Z,19.76
2019-05-02T16:45:37.759Z,19.72
2019-05-02T16:48:09.087Z,19.58
2019-05-02T16:50:42.047Z,19.67
2019-05-02T16:53:17.138Z,19.50
2019-05-02T16:55:46.963Z,19.23
2019-05-02T16:58:19.485Z,19.25
2019-05-02T17:00:52.664Z,19.16
2019-05-02T17:03:26.969Z,18.86
2019-05-02T17:05:58.232Z,18.83
2019-05-02T17:08:58.675Z,18.71
2019-05-02T17:11:42.061Z,18.59
2019-05-02T17:14:13.549Z,18.61
2019-05-02T17:16:47.125Z,18.62
2019-05-02T17:19:18.184Z,18.44
2019-05-02T17:21:55.405Z,18.21
2019-05-02T17:24:26.186Z,18.21
2019-05-02T17:26:55.887Z,18.09
2019-05-02T17:29:27.204Z,18.00
2019-05-02T17:32:02.198Z,17.49
2019-05-02T17:34:35.050Z,17.45
2019-05-02T17:37:11.490Z,17.18
2019-05-02T17:39:42.699Z,17.18
2019-05-02T17:42:17.087Z,17.09
2019-05-02T17:44:47.425Z,17.04
2019-05-02T17:47:18.947Z,16.95
2019-05-02T17:49:52.863Z,16.94
2019-05-02T17:52:32.914Z,16.73
2019-05-02T17:55:04.806Z,16.54
2019-05-02T17:57:41.883Z,16.28
2019-05-02T18:00:18.992Z,16.32
2019-05-02T18:02:51.881Z,16.19
2019-05-02T18:05:26.535Z,15.94
2019-05-02T18:07:56.855Z,15.96
2019-05-02T18:10:29.011Z,15.80
2019-05-02T18:13:02.527Z,15.54
2019-05-02T18:15:34.785Z,15.65
2019-05-02T18:18:08.048Z,15.59
2019-05-02T18:20:42.897Z,15.52
2019-05-02T18:23:12.820Z,15.16
2019-05-02T18:25:44.103Z,15.10
2019-05-02T18:28:22.258Z,15.15
2019-05-02T18:30:50.147Z,15.27
2019-05-02T18:33:23.480Z,15.33
2019-05-02T18:35:54.773Z,15.36
2019-05-02T18:38:26.428Z,15.19
2019-05-02T18:41:00.241Z,15.09
2019-05-02T18:43:31.513Z,15.08
2019-05-02T18:46:07.516Z,14.98
2019-05-02T18:48:36.588Z,15.04
2019-05-02T18:51:09.057Z,15.06
2019-05-02T18:53:42.246Z,15.02
2019-05-02T18:56:13.419Z,15.06
2019-05-02T18:58:45.367Z,14.84
2019-05-02T19:01:18.441Z,14.58
2019-05-02T19:03:52.568Z,14.42
2019-05-02T19:06:23.037Z,14.45
2019-05-02T19:08:56.888Z,14.47
2019-05-02T19:11:33.673Z,14.53
2019-05-02T19:14:02.701Z,14.48
2019-05-02T19:16:34.044Z,14.53
2019-05-02T19:19:05.660Z,14.49
2019-05-02T19:21:39.463Z,14.46
2019-05-02T19:24:10.216Z,14.35
2019-05-02T19:26:49.007Z,14.27
2019-05-02T19:29:31.874Z,14.15
2019-05-02T19:32:05.287Z,13.74
2019-05-02T19:34:36.633Z,13.62
2019-05-02T19:37:07.983Z,13.57
2019-05-02T19:39:47.201Z,13.71
2019-05-02T19:42:17.143Z,13.52
2019-05-02T19:44:46.015Z,13.44
2019-05-02T19:47:17.703Z,13.32
2019-05-02T19:49:52.412Z,13.31
2019-05-02T19:52:22.275Z,13.21
2019-05-02T19:54:53.602Z,13.13
2019-05-02T19:57:26.383Z,13.19
2019-05-02T20:00:02.747Z,13.06
2019-05-02T20:02:37.343Z,13.13
2019-05-02T20:05:07.215Z,12.95
2019-05-02T20:07:38.617Z,13.08
2019-05-02T20:10:12.291Z,13.20
2019-05-02T20:12:48.421Z,13.17
2019-05-02T20:15:25.458Z,13.14
2019-05-02T20:17:55.330Z,13.00
2019-05-02T20:20:54.946Z,12.59
2019-05-02T20:23:31.671Z,12.67
2019-05-02T20:25:59.507Z,12.68
2019-05-02T20:28:31.762Z,12.38
2019-05-02T20:31:03.268Z,12.34
2019-05-02T20:33:34.549Z,12.34
2019-05-02T20:36:05.863Z,12.37
2019-05-02T20:38:37.617Z,12.48
2019-05-02T20:41:09.010Z,12.58
2019-05-02T20:43:42.925Z,12.62
2019-05-02T20:46:13.652Z,12.68
2019-05-02T20:48:45.085Z,12.65
2019-05-02T20:51:16.394Z,12.75
2019-05-02T20:53:47.618Z,12.78
2019-05-02T20:56:18.834Z,12.85
2019-05-02T20:58:50.091Z,12.83
2019-05-02T21:01:21.742Z,12.72
2019-05-02T21:03:53.153Z,12.61
2019-05-02T21:06:47.487Z,12.40
2019-05-02T21:09:39.189Z,12.56
2019-05-02T21:12:12.472Z,12.49
2019-05-02T21:14:43.382Z,12.45
2019-05-02T21:17:14.843Z,12.45
2019-05-02T21:19:46.354Z,12.22
2019-05-02T21:22:22.227Z,12.35
2019-05-02T21:24:53.783Z,12.27
2019-05-02T21:27:25.124Z,12.42
2019-05-02T21:29:56.341Z,12.46
2019-05-02T21:32:27.552Z,12.56
2019-05-02T21:34:58.772Z,12.63
2019-05-02T21:37:31.828Z,12.69
2019-05-02T21:40:02.985Z,12.74
2019-05-02T21:42:34.361Z,12.77
2019-05-02T21:45:06.095Z,12.75
2019-05-02T21:47:37.435Z,12.66
2019-05-02T21:50:19.017Z,12.60
2019-05-02T21:53:10.349Z,12.39
2019-05-02T21:55:52.090Z,12.40
2019-05-02T21:58:25.604Z,12.35
2019-05-02T22:01:02.412Z,12.41
2019-05-02T22:03:33.908Z,12.27
2019-05-02T22:06:06.042Z,12.11
2019-05-02T22:08:37.512Z,12.09
2019-05-02T22:11:08.882Z,11.87
2019-05-02T22:13:42.167Z,11.83
2019-05-02T22:16:13.422Z,11.80
2019-05-02T22:18:44.775Z,11.80
2019-05-02T22:21:16.048Z,11.84
2019-05-02T22:23:47.252Z,11.92
2019-05-02T22:26:18.647Z,12.08
2019-05-02T22:28:49.873Z,12.04
2019-05-02T22:31:22.687Z,12.02
2019-05-02T22:33:54.121Z,12.00
2019-05-02T22:36:26.074Z,11.93
2019-05-02T22:39:31.735Z,11.86
2019-05-02T22:42:04.617Z,11.91
2019-05-02T22:44:36.454Z,12.03
2019-05-02T22:47:07.686Z,11.97
2019-05-02T22:49:39.104Z,12.01
2019-05-02T22:52:12.155Z,12.08
2019-05-02T22:54:43.559Z,12.14
2019-05-02T22:57:15.300Z,12.17
2019-05-02T22:59:46.713Z,12.16
2019-05-02T23:02:18.290Z,12.21
2019-05-02T23:04:49.596Z,12.21
2019-05-02T23:07:22.176Z,12.23
2019-05-02T23:09:53.674Z,12.06
2019-05-02T23:12:25.163Z,12.14
2019-05-02T23:14:56.640Z,12.05
2019-05-02T23:17:27.852Z,12.02
2019-05-02T23:19:59.538Z,11.69
2019-05-02T23:22:32.330Z,11.66
2019-05-02T23:25:14.316Z,11.80
2019-05-02T23:27:52.327Z,11.80
2019-05-02T23:30:25.264Z,11.88
2019-05-02T23:32:56.968Z,11.92
2019-05-02T23:35:28.321Z,11.87
2019-05-02T23:38:01.997Z,11.94
2019-05-02T23:40:33.381Z,12.01
2019-05-02T23:43:04.702Z,11.92
2019-05-02T23:45:36.081Z,11.94
2019-05-02T23:48:07.362Z,11.80
2019-05-02T23:50:39.242Z,11.43
2019-05-02T23:53:12.713Z,11.27
2019-05-02T23:55:43.679Z,11.32
2019-05-02T23:58:14.851Z,11.41
